Time;durP1;ratioP1;P1;durP2;ratioP2;P2;SDS_P1;SDS_P2;PMS_P1;PMS_P2;Temp;Humidity;BMP_temperature;BMP_pressure;BME280_temperature;BME280_humidity;BME280_pressure;Samples;Min_cycle;Max_cycle;Signal;HPM_P1;HPM_P2
2024/03/06 00:01:53;;;;;;;15.35;10.80;;;8.40;99.90;;;;;;5043109;28;20524;-35
2024/03/06 00:04:18;;;;;;;14.45;11.23;;;8.40;99.90;;;;;;5043330;28;20029;-34
2024/03/06 00:06:44;;;;;;;14.93;12.02;;;8.40;99.90;;;;;;5043527;28;20032;-35
2024/03/06 00:09:09;;;;;;;13.65;11.23;;;8.40;99.90;;;;;;5042881;28;20409;-35
2024/03/06 00:11:40;;;;;;;15.05;11.95;;;8.30;99.90;;;;;;5043225;28;20859;-37
2024/03/06 00:14:05;;;;;;;16.10;11.95;;;8.40;99.90;;;;;;5042824;28;20025;-31
2024/03/06 00:16:31;;;;;;;14.85;11.77;;;8.30;99.90;;;;;;5042116;28;20021;-35
2024/03/06 00:18:57;;;;;;;15.40;11.27;;;8.40;99.90;;;;;;5043022;28;20064;-33
2024/03/06 00:21:23;;;;;;;15.40;12.18;;;8.40;99.90;;;;;;5042586;28;20314;-32
2024/03/06 00:23:48;;;;;;;15.18;11.68;;;8.40;99.90;;;;;;5042448;28;20025;-33
2024/03/06 00:26:14;;;;;;;14.60;11.98;;;8.30;99.90;;;;;;5042302;28;20114;-34
2024/03/06 00:28:39;;;;;;;14.30;12.35;;;8.30;99.90;;;;;;5042938;28;20040;-34
2024/03/06 00:31:05;;;;;;;14.57;11.50;;;8.30;99.90;;;;;;5042352;28;20036;-33
2024/03/06 00:33:31;;;;;;;15.07;11.55;;;8.30;99.90;;;;;;5042957;28;20066;-34
2024/03/06 00:35:57;;;;;;;17.17;12.57;;;8.20;99.90;;;;;;5042747;28;20124;-35
2024/03/06 00:38:22;;;;;;;15.10;12.60;;;8.20;99.90;;;;;;5041975;28;20129;-35
2024/03/06 00:40:48;;;;;;;15.40;11.60;;;8.20;99.90;;;;;;5042627;28;20059;-35
2024/03/06 00:43:14;;;;;;;13.73;11.50;;;8.10;99.90;;;;;;5042383;28;20132;-31
2024/03/06 00:45:39;;;;;;;15.10;11.25;;;8.00;99.90;;;;;;5041335;28;20065;-33
2024/03/06 00:48:08;;;;;;;13.00;10.65;;;8.00;99.90;;;;;;5041718;28;20394;-34
2024/03/06 00:50:33;;;;;;;15.63;10.98;;;8.00;99.90;;;;;;5042242;28;20047;-34
2024/03/06 00:52:59;;;;;;;15.70;11.77;;;7.90;99.90;;;;;;5042170;28;20025;-35
2024/03/06 00:55:25;;;;;;;15.75;12.05;;;7.90;99.90;;;;;;5041577;28;20021;-31
2024/03/06 00:57:50;;;;;;;13.65;11.05;;;7.80;99.90;;;;;;5041666;28;20505;-34
2024/03/06 01:00:17;;;;;;;14.48;11.63;;;7.80;99.90;;;;;;5042910;28;20105;-36
2024/03/06 01:02:42;;;;;;;16.80;12.32;;;7.70;99.90;;;;;;5042812;28;20029;-34
2024/03/06 01:05:09;;;;;;;15.77;12.52;;;7.70;99.90;;;;;;5041827;28;20028;-33
2024/03/06 01:07:39;;;;;;;14.05;11.95;;;7.60;99.90;;;;;;5041767;28;20068;-35
2024/03/06 01:10:08;;;;;;;16.15;12.93;;;7.60;99.90;;;;;;5040699;28;20119;-34
2024/03/06 01:12:34;;;;;;;16.48;12.95;;;7.50;99.90;;;;;;5041697;28;20017;-35
2024/03/06 01:15:00;;;;;;;14.43;11.95;;;7.50;99.90;;;;;;5042706;28;20140;-32
2024/03/06 01:17:26;;;;;;;15.70;12.50;;;7.40;99.90;;;;;;5041846;28;20136;-33
2024/03/06 01:19:51;;;;;;;17.42;12.48;;;7.40;99.90;;;;;;5041534;28;20027;-35
2024/03/06 01:22:17;;;;;;;15.50;12.27;;;7.40;99.90;;;;;;5041432;28;20033;-35
2024/03/06 01:24:43;;;;;;;12.93;11.48;;;7.40;99.90;;;;;;5042277;28;20106;-35
2024/03/06 01:27:09;;;;;;;14.57;11.65;;;7.40;99.90;;;;;;5040911;28;20013;-36
2024/03/06 01:29:34;;;;;;;14.20;12.23;;;7.40;99.90;;;;;;5041719;28;20380;-36
2024/03/06 01:32:01;;;;;;;14.25;12.02;;;7.30;99.90;;;;;;5041869;28;20037;-35
2024/03/06 01:34:26;;;;;;;14.77;12.38;;;7.30;99.90;;;;;;5040298;28;20469;-35
2024/03/06 01:37:00;;;;;;;15.75;12.73;;;7.30;99.90;;;;;;5042107;28;20029;-31
2024/03/06 01:39:26;;;;;;;15.77;12.57;;;7.20;99.90;;;;;;5031410;28;20029;-31
2024/03/06 01:41:51;;;;;;;15.43;12.73;;;7.20;99.90;;;;;;5041266;28;20044;-33
2024/03/06 01:44:21;;;;;;;14.90;11.82;;;7.20;99.90;;;;;;5041655;28;20601;-33
2024/03/06 01:46:46;;;;;;;14.85;12.55;;;7.20;99.90;;;;;;5041208;28;20087;-33
2024/03/06 01:49:13;;;;;;;15.68;12.23;;;7.10;99.90;;;;;;5041064;28;20033;-36
2024/03/06 01:51:40;;;;;;;16.25;12.77;;;7.10;99.90;;;;;;5041433;28;20559;-35
2024/03/06 01:54:07;;;;;;;16.00;12.35;;;7.20;99.90;;;;;;5041363;28;20052;-32
2024/03/06 01:56:38;;;;;;;16.77;12.55;;;7.10;99.90;;;;;;5041203;28;20033;-33
2024/03/06 01:59:04;;;;;;;16.52;12.60;;;7.10;99.90;;;;;;5041271;28;20076;-34
2024/03/06 02:01:31;;;;;;;16.88;12.82;;;7.10;99.90;;;;;;5041527;28;20116;-29
2024/03/06 02:03:56;;;;;;;17.35;12.93;;;7.10;99.90;;;;;;5041963;28;20037;-33
2024/03/06 02:06:22;;;;;;;16.42;12.60;;;7.00;99.90;;;;;;5041489;28;20033;-32
2024/03/06 02:08:48;;;;;;;15.05;12.18;;;7.00;99.90;;;;;;5040823;28;20075;-35
2024/03/06 02:11:16;;;;;;;16.77;13.18;;;7.00;99.90;;;;;;5041309;28;20999;-34
2024/03/06 02:13:42;;;;;;;15.90;12.70;;;7.00;99.90;;;;;;5040776;28;20063;-34
2024/03/06 02:16:15;;;;;;;16.40;12.60;;;7.00;99.90;;;;;;5040219;28;20478;-35
2024/03/06 02:18:54;;;;;;;18.08;13.25;;;7.00;99.90;;;;;;5040942;28;20463;-33
2024/03/06 02:21:21;;;;;;;17.65;13.35;;;6.90;99.90;;;;;;5040687;28;20092;-34
2024/03/06 02:23:47;;;;;;;17.58;13.55;;;6.90;99.90;;;;;;5040444;28;20029;-32
2024/03/06 02:26:13;;;;;;;18.17;13.13;;;6.90;99.90;;;;;;5041235;28;20040;-32
2024/03/06 02:28:38;;;;;;;16.20;13.02;;;6.80;99.90;;;;;;5040792;28;20029;-32
2024/03/06 02:31:06;;;;;;;17.73;13.52;;;6.80;99.90;;;;;;5040039;28;20029;-35
2024/03/06 02:33:34;;;;;;;18.48;13.82;;;6.80;99.90;;;;;;5040810;28;20056;-32
2024/03/06 02:35:59;;;;;;;17.77;13.82;;;6.70;99.90;;;;;;5040948;28;20755;-35
2024/03/06 02:38:25;;;;;;;19.33;13.43;;;6.60;99.90;;;;;;5039846;28;20095;-34
2024/03/06 02:40:54;;;;;;;17.92;14.02;;;6.60;99.90;;;;;;5041383;28;20108;-37
2024/03/06 02:43:19;;;;;;;18.20;13.35;;;6.60;99.90;;;;;;5040859;28;20036;-35
2024/03/06 02:45:45;;;;;;;16.65;13.63;;;6.60;99.90;;;;;;5040682;28;20811;-36
2024/03/06 02:48:10;;;;;;;18.42;13.30;;;6.50;99.90;;;;;;5040728;28;20039;-34
2024/03/06 02:50:36;;;;;;;17.52;13.43;;;6.50;99.90;;;;;;5038991;28;20190;-31
2024/03/06 02:53:01;;;;;;;17.52;13.70;;;6.50;99.90;;;;;;5040654;28;20039;-35
2024/03/06 02:55:27;;;;;;;19.98;14.13;;;6.50;99.90;;;;;;5040178;28;20067;-33
2024/03/06 02:57:55;;;;;;;17.30;13.57;;;6.50;99.90;;;;;;5039696;28;20060;-34
2024/03/06 03:00:21;;;;;;;17.75;14.00;;;6.40;99.90;;;;;;5039048;28;20032;-32
2024/03/06 03:02:47;;;;;;;16.70;14.05;;;6.40;99.90;;;;;;5038549;28;20818;-33
2024/03/06 03:05:12;;;;;;;19.75;14.60;;;6.40;99.90;;;;;;5038954;28;20111;-35
2024/03/06 03:07:38;;;;;;;18.30;13.73;;;6.40;99.90;;;;;;5038395;28;20048;-35
2024/03/06 03:10:04;;;;;;;17.35;13.57;;;6.50;99.90;;;;;;5039189;28;20188;-31
2024/03/06 03:12:30;;;;;;;19.17;14.85;;;6.40;99.90;;;;;;5038689;28;20020;-34
2024/03/06 03:14:55;;;;;;;17.73;14.05;;;6.50;99.90;;;;;;5039428;28;20031;-33
2024/03/06 03:17:21;;;;;;;19.55;14.00;;;6.50;99.90;;;;;;5039482;28;20047;-36
2024/03/06 03:19:46;;;;;;;21.00;14.88;;;6.50;99.90;;;;;;5040136;28;20029;-33
2024/03/06 03:22:13;;;;;;;18.38;14.57;;;6.50;99.90;;;;;;5040159;28;20051;-33
2024/03/06 03:24:41;;;;;;;18.70;14.15;;;6.50;99.90;;;;;;5040101;28;20082;-35
2024/03/06 03:27:07;;;;;;;17.92;14.30;;;6.50;99.90;;;;;;5039329;28;20026;-35
2024/03/06 03:29:33;;;;;;;17.27;13.73;;;6.50;99.90;;;;;;5040224;28;20101;-36
2024/03/06 03:31:58;;;;;;;17.05;13.25;;;6.50;99.90;;;;;;5039735;28;20439;-35
2024/03/06 03:34:24;;;;;;;18.77;13.88;;;6.40;99.90;;;;;;5038785;28;20117;-34
2024/03/06 03:36:49;;;;;;;16.63;13.15;;;6.40;99.90;;;;;;5040067;28;20056;-33
2024/03/06 03:39:20;;;;;;;18.77;13.65;;;6.40;99.90;;;;;;5039863;28;20104;-34
2024/03/06 03:41:47;;;;;;;17.55;13.25;;;6.40;99.90;;;;;;5039398;28;20468;-35
2024/03/06 03:44:17;;;;;;;16.50;13.02;;;6.50;99.90;;;;;;5040002;28;20450;-33
2024/03/06 03:46:43;;;;;;;16.45;12.55;;;6.40;99.90;;;;;;5039069;28;20108;-32
2024/03/06 03:49:09;;;;;;;16.15;12.27;;;6.40;99.90;;;;;;5039196;28;20035;-33
2024/03/06 03:51:38;;;;;;;16.38;13.00;;;6.50;99.90;;;;;;5038893;28;20029;-34
2024/03/06 03:54:04;;;;;;;16.30;12.70;;;6.40;99.90;;;;;;5038529;28;20138;-34
2024/03/06 03:56:30;;;;;;;19.77;14.20;;;6.50;99.90;;;;;;5039604;28;20136;-34
2024/03/06 03:58:58;;;;;;;17.48;13.13;;;6.40;99.90;;;;;;5039429;28;20090;-34
2024/03/06 04:01:24;;;;;;;18.48;13.50;;;6.40;99.90;;;;;;5038450;28;20651;-34
2024/03/06 04:03:50;;;;;;;16.25;12.88;;;6.40;99.90;;;;;;5040232;28;20388;-36
2024/03/06 04:06:16;;;;;;;16.17;12.95;;;6.40;99.90;;;;;;5039985;28;20033;-33
2024/03/06 04:08:42;;;;;;;16.77;12.93;;;6.40;99.90;;;;;;5038448;28;20080;-36
2024/03/06 04:11:08;;;;;;;21.60;14.38;;;6.30;99.90;;;;;;5039645;28;20029;-32
2024/03/06 04:13:37;;;;;;;18.92;14.45;;;6.30;99.90;;;;;;5038699;28;20025;-34
2024/03/06 04:16:06;;;;;;;18.25;14.68;;;6.30;99.90;;;;;;5038758;28;20082;-35
2024/03/06 04:18:35;;;;;;;18.85;14.75;;;6.20;99.90;;;;;;5039170;28;20031;-33
2024/03/06 04:21:05;;;;;;;18.85;14.70;;;6.20;99.90;;;;;;5039861;28;20124;-33
2024/03/06 04:23:32;;;;;;;20.73;15.05;;;6.20;99.90;;;;;;5039163;28;20463;-35
2024/03/06 04:26:01;;;;;;;17.95;13.73;;;6.10;99.90;;;;;;5040334;28;20505;-32
2024/03/06 04:28:27;;;;;;;19.52;14.30;;;6.10;99.90;;;;;;5039556;28;20017;-33
2024/03/06 04:30:53;;;;;;;19.77;14.60;;;6.10;99.90;;;;;;5039610;28;20624;-34
2024/03/06 04:33:18;;;;;;;19.98;15.30;;;6.00;99.90;;;;;;5038877;28;20017;-33
2024/03/06 04:35:44;;;;;;;18.80;14.60;;;6.00;99.90;;;;;;5039704;28;20021;-33
2024/03/06 04:38:09;;;;;;;18.42;13.73;;;6.00;99.90;;;;;;5039320;28;20620;-30
2024/03/06 04:40:35;;;;;;;18.60;14.40;;;6.00;99.90;;;;;;5039388;28;20021;-31
2024/03/06 04:43:01;;;;;;;17.90;14.05;;;5.90;99.90;;;;;;5039008;28;20075;-31
2024/03/06 04:45:28;;;;;;;18.85;14.65;;;5.90;99.90;;;;;;5040306;28;20106;-29
2024/03/06 04:47:54;;;;;;;19.27;14.55;;;5.90;99.90;;;;;;5042547;28;20028;-32
2024/03/06 04:50:20;;;;;;;22.40;14.80;;;5.90;99.90;;;;;;5041552;28;20094;-32
2024/03/06 04:52:45;;;;;;;18.23;14.13;;;5.90;99.90;;;;;;5043133;28;20060;-32
2024/03/06 04:55:12;;;;;;;18.77;14.30;;;5.80;99.90;;;;;;5042192;28;20086;-36
2024/03/06 04:57:42;;;;;;;19.70;14.05;;;5.80;99.90;;;;;;5041994;28;20086;-32
2024/03/06 05:00:08;;;;;;;18.45;14.13;;;5.80;99.90;;;;;;5041791;28;20040;-32
2024/03/06 05:02:36;;;;;;;19.15;14.77;;;5.70;99.90;;;;;;5042588;28;20029;-33
2024/03/06 05:05:02;;;;;;;18.83;15.07;;;5.70;99.90;;;;;;5041914;28;20521;-32
2024/03/06 05:07:29;;;;;;;17.58;14.38;;;5.70;99.90;;;;;;5042732;28;20056;-29
2024/03/06 05:10:07;;;;;;;19.60;13.85;;;5.70;99.90;;;;;;5042796;28;20091;-37
2024/03/06 05:12:34;;;;;;;18.33;13.95;;;5.70;99.90;;;;;;5041386;28;20037;-32
2024/03/06 05:15:03;;;;;;;19.80;14.57;;;5.70;99.90;;;;;;5042523;28;20099;-33
2024/03/06 05:17:29;;;;;;;20.92;14.77;;;5.60;99.90;;;;;;5042217;28;20135;-34
2024/03/06 05:19:54;;;;;;;19.83;15.82;;;5.60;99.90;;;;;;5041793;28;20047;-33
2024/03/06 05:22:21;;;;;;;19.00;14.50;;;5.60;99.90;;;;;;5041757;28;20044;-34
2024/03/06 05:24:46;;;;;;;20.50;15.05;;;5.60;99.90;;;;;;5041738;28;20060;-34
2024/03/06 05:27:17;;;;;;;18.65;14.38;;;5.50;99.90;;;;;;5041314;28;20145;-32
2024/03/06 05:29:43;;;;;;;21.02;15.90;;;5.50;99.90;;;;;;5041413;28;20404;-37
2024/03/06 05:32:09;;;;;;;22.00;15.82;;;5.50;99.90;;;;;;5040908;28;20025;-35
2024/03/06 05:34:34;;;;;;;18.63;14.75;;;5.50;99.90;;;;;;5041187;28;20040;-32
2024/03/06 05:37:04;;;;;;;20.88;15.07;;;5.50;99.90;;;;;;5040630;28;20033;-33
2024/03/06 05:39:30;;;;;;;18.95;13.73;;;5.50;99.90;;;;;;5040576;28;20734;-30
2024/03/06 05:42:02;;;;;;;19.85;15.00;;;5.50;99.90;;;;;;5041764;28;20451;-33
2024/03/06 05:44:28;;;;;;;18.75;14.70;;;5.50;99.90;;;;;;5042179;28;20112;-36
2024/03/06 05:46:53;;;;;;;20.38;15.07;;;5.60;99.90;;;;;;5041051;28;20463;-36
2024/03/06 05:49:19;;;;;;;19.45;14.93;;;5.60;99.90;;;;;;5040561;28;20017;-35
2024/03/06 05:51:45;;;;;;;19.05;14.43;;;5.60;99.90;;;;;;5041376;28;20035;-36
2024/03/06 05:54:11;;;;;;;18.63;14.15;;;5.60;99.90;;;;;;5040861;28;20026;-34
2024/03/06 05:56:36;;;;;;;17.67;13.73;;;5.60;99.90;;;;;;5040896;28;20087;-36
2024/03/06 05:59:07;;;;;;;18.02;13.18;;;5.60;99.90;;;;;;5040923;28;20029;-35
2024/03/06 06:01:34;;;;;;;20.83;14.00;;;5.60;99.90;;;;;;5039676;28;20021;-36
2024/03/06 06:04:00;;;;;;;22.92;13.02;;;5.70;99.90;;;;;;5041674;28;20032;-36
2024/03/06 06:06:26;;;;;;;21.10;13.82;;;5.70;99.90;;;;;;5040956;28;20028;-37
2024/03/06 06:08:51;;;;;;;24.63;13.27;;;5.70;99.90;;;;;;5040603;28;20057;-31
2024/03/06 06:11:17;;;;;;;18.98;13.38;;;5.70;99.90;;;;;;5040920;28;20043;-36
2024/03/06 06:13:46;;;;;;;17.27;13.50;;;5.70;99.90;;;;;;5041324;28;20111;-33
2024/03/06 06:16:12;;;;;;;17.35;12.38;;;5.70;99.90;;;;;;5040651;28;20029;-32
2024/03/06 06:18:41;;;;;;;34.70;11.95;;;5.80;99.90;;;;;;5040549;28;20032;-33
2024/03/06 06:21:07;;;;;;;32.97;11.80;;;5.80;99.90;;;;;;5039997;28;20056;-36
2024/03/06 06:23:34;;;;;;;44.83;12.23;;;5.80;99.90;;;;;;5039170;28;20719;-35
2024/03/06 06:26:06;;;;;;;31.25;12.70;;;5.70;99.90;;;;;;5040628;28;20033;-35
2024/03/06 06:28:31;;;;;;;27.35;11.18;;;5.70;99.90;;;;;;5039345;28;20555;-36
2024/03/06 06:30:57;;;;;;;37.38;11.18;;;5.70;99.90;;;;;;5040664;28;20036;-35
2024/03/06 06:33:23;;;;;;;34.72;12.32;;;5.70;99.90;;;;;;5039583;28;20028;-30
2024/03/06 06:35:48;;;;;;;25.02;11.77;;;5.70;99.90;;;;;;5040110;28;20021;-35
2024/03/06 06:38:14;;;;;;;19.70;12.02;;;5.70;99.90;;;;;;5041825;28;20048;-32
2024/03/06 06:40:42;;;;;;;19.80;10.82;;;5.70;99.90;;;;;;5040375;28;20036;-35
2024/03/06 06:43:08;;;;;;;16.27;11.82;;;5.70;99.90;;;;;;5039558;28;20061;-36
2024/03/06 06:45:33;;;;;;;26.17;12.35;;;5.70;99.90;;;;;;5040630;28;20182;-32
2024/03/06 06:48:05;;;;;;;20.55;12.13;;;5.70;99.90;;;;;;5040331;28;20040;-33
2024/03/06 06:50:33;;;;;;;35.55;13.23;;;5.70;99.90;;;;;;5037193;28;20458;-34
2024/03/06 06:52:59;;;;;;;29.15;12.50;;;5.80;99.90;;;;;;5039112;28;20032;-37
2024/03/06 06:55:25;;;;;;;18.70;12.40;;;5.80;99.90;;;;;;5038785;28;20060;-34
2024/03/06 06:57:51;;;;;;;16.25;12.93;;;5.80;99.90;;;;;;5038406;28;20783;-33
2024/03/06 07:00:18;;;;;;;27.75;12.77;;;5.90;99.90;;;;;;5039403;28;20035;-32
2024/03/06 07:02:44;;;;;;;17.70;12.40;;;5.90;99.90;;;;;;5039052;28;20036;-34
2024/03/06 07:05:11;;;;;;;22.02;11.75;;;6.00;99.90;;;;;;5038183;28;20484;-36
2024/03/06 07:07:37;;;;;;;19.90;11.73;;;6.00;99.90;;;;;;5037645;28;20134;-35
2024/03/06 07:10:04;;;;;;;15.55;12.77;;;6.10;99.90;;;;;;5039229;28;20037;-32
2024/03/06 07:12:30;;;;;;;19.92;13.73;;;6.10;99.90;;;;;;5036905;28;20072;-33
2024/03/06 07:14:55;;;;;;;16.63;13.07;;;6.20;99.90;;;;;;5037814;28;20100;-31
2024/03/06 07:17:21;;;;;;;19.98;11.98;;;6.30;99.90;;;;;;5036987;28;20021;-31
2024/03/06 07:19:47;;;;;;;16.50;11.90;;;6.30;99.90;;;;;;5036712;28;20025;-34
2024/03/06 07:22:12;;;;;;;17.50;11.60;;;6.30;99.90;;;;;;5037285;28;20020;-36
2024/03/06 07:24:38;;;;;;;15.30;11.27;;;6.30;99.90;;;;;;5037516;28;20140;-31
2024/03/06 07:27:08;;;;;;;21.10;11.65;;;6.40;99.90;;;;;;5036341;28;20506;-34
2024/03/06 07:29:35;;;;;;;17.48;10.60;;;6.40;99.90;;;;;;5038960;28;20071;-34
2024/03/06 07:32:01;;;;;;;17.70;10.38;;;6.50;99.90;;;;;;5038634;28;20048;-35
2024/03/06 07:34:27;;;;;;;17.98;10.15;;;6.50;99.90;;;;;;5039096;28;20029;-31
2024/03/06 07:36:52;;;;;;;13.57;10.60;;;6.50;99.90;;;;;;5039353;28;20104;-33
2024/03/06 07:39:21;;;;;;;20.67;10.63;;;6.60;99.90;;;;;;5038033;28;20104;-36
2024/03/06 07:41:46;;;;;;;19.60;10.95;;;6.60;99.90;;;;;;5040079;28;20032;-34
2024/03/06 07:44:12;;;;;;;15.48;9.80;;;6.60;99.90;;;;;;5037842;28;20024;-36
2024/03/06 07:46:38;;;;;;;15.48;9.70;;;6.60;99.90;;;;;;5036762;28;20102;-35
2024/03/06 07:49:04;;;;;;;11.30;10.10;;;6.60;99.90;;;;;;5038095;28;20059;-34
2024/03/06 07:51:31;;;;;;;12.35;8.98;;;6.60;99.90;;;;;;5037257;28;20116;-34
2024/03/06 07:53:57;;;;;;;14.43;8.93;;;6.60;99.90;;;;;;5036840;28;20249;-35
2024/03/06 07:56:24;;;;;;;12.95;9.65;;;6.60;99.90;;;;;;5036731;28;20049;-32
2024/03/06 07:58:49;;;;;;;23.60;10.35;;;6.70;99.90;;;;;;5038445;28;20027;-33
2024/03/06 08:01:15;;;;;;;21.90;10.43;;;6.70;99.90;;;;;;5038479;28;20033;-37
2024/03/06 08:03:42;;;;;;;16.27;9.30;;;6.70;99.90;;;;;;5039359;28;20102;-34
2024/03/06 08:06:09;;;;;;;13.75;9.45;;;6.70;99.90;;;;;;5039025;28;20056;-34
2024/03/06 08:08:40;;;;;;;18.65;9.13;;;6.80;99.90;;;;;;5038424;28;20127;-33
2024/03/06 08:11:10;;;;;;;19.00;10.68;;;6.80;99.90;;;;;;5039099;28;20037;-36
2024/03/06 08:13:36;;;;;;;22.20;9.25;;;6.80;99.90;;;;;;5039877;28;20057;-35
2024/03/06 08:16:05;;;;;;;21.08;9.70;;;6.80;99.90;;;;;;5038018;28;20132;-35
2024/03/06 08:18:32;;;;;;;18.50;11.38;;;6.80;99.90;;;;;;5039474;28;20028;-34
2024/03/06 08:20:57;;;;;;;18.70;10.65;;;6.90;99.90;;;;;;5042970;28;20048;-33
2024/03/06 08:23:26;;;;;;;22.40;10.43;;;6.90;99.90;;;;;;5042330;28;20128;-36
2024/03/06 08:25:52;;;;;;;18.17;10.05;;;7.00;99.90;;;;;;5042879;28;20036;-35
2024/03/06 08:28:18;;;;;;;19.98;10.38;;;7.00;99.90;;;;;;5042015;28;20114;-34
2024/03/06 08:30:44;;;;;;;19.92;11.20;;;7.10;99.90;;;;;;5043284;28;20708;-32
2024/03/06 08:33:10;;;;;;;18.80;11.05;;;7.00;99.90;;;;;;5041392;28;20121;-34
2024/03/06 08:35:35;;;;;;;18.70;10.13;;;7.10;99.90;;;;;;5040582;28;20061;-37
2024/03/06 08:38:01;;;;;;;17.60;11.18;;;7.20;99.90;;;;;;5041052;28;20059;-36
2024/03/06 08:40:28;;;;;;;17.63;11.65;;;7.20;99.90;;;;;;5040732;28;20079;-32
2024/03/06 08:42:53;;;;;;;19.48;10.63;;;7.30;99.90;;;;;;5040702;28;20017;-36
2024/03/06 08:45:25;;;;;;;16.23;11.15;;;7.30;99.90;;;;;;5040798;28;20025;-34
2024/03/06 08:47:53;;;;;;;22.53;10.90;;;7.40;99.90;;;;;;5042510;28;20032;-36
2024/03/06 08:50:19;;;;;;;23.45;11.27;;;7.40;99.90;;;;;;5041867;28;20745;-36
2024/03/06 08:52:45;;;;;;;22.42;10.10;;;7.50;99.90;;;;;;5041889;28;20033;-32
2024/03/06 08:55:11;;;;;;;25.60;11.80;;;7.50;99.90;;;;;;5042331;28;20102;-33
2024/03/06 08:57:37;;;;;;;20.58;11.52;;;7.50;99.90;;;;;;5040925;28;20037;-37
2024/03/06 09:00:10;;;;;;;25.90;11.73;;;7.50;99.90;;;;;;5042501;28;20040;-33
2024/03/06 09:02:38;;;;;;;17.15;11.65;;;7.60;99.90;;;;;;5041804;28;20102;-36
2024/03/06 09:05:05;;;;;;;18.10;12.15;;;7.70;99.90;;;;;;5041418;28;20074;-35
2024/03/06 09:07:31;;;;;;;24.80;12.05;;;7.70;99.90;;;;;;5041246;28;20048;-33
2024/03/06 09:09:56;;;;;;;22.08;11.55;;;7.70;99.90;;;;;;5042021;28;20025;-33
2024/03/06 09:12:22;;;;;;;23.42;11.95;;;7.80;99.90;;;;;;5040831;28;20025;-33
2024/03/06 09:14:48;;;;;;;19.60;12.25;;;7.80;99.90;;;;;;5042684;28;20516;-32
2024/03/06 09:17:14;;;;;;;19.00;12.00;;;7.90;99.90;;;;;;5041866;28;20033;-32
2024/03/06 09:19:40;;;;;;;22.25;12.45;;;7.80;99.90;;;;;;5041894;28;20641;-36
2024/03/06 09:22:07;;;;;;;16.52;11.85;;;7.80;99.90;;;;;;5041331;28;20039;-33
2024/03/06 09:24:33;;;;;;;22.58;11.85;;;7.90;99.90;;;;;;5040885;28;20132;-32
2024/03/06 09:27:04;;;;;;;19.92;12.85;;;7.90;99.90;;;;;;5041856;28;20043;-36
2024/03/06 09:29:30;;;;;;;17.02;11.25;;;7.90;99.90;;;;;;5039390;28;20017;-34
2024/03/06 09:31:56;;;;;;;18.35;13.27;;;8.00;99.90;;;;;;5040530;28;20091;-35
2024/03/06 09:34:21;;;;;;;20.88;12.10;;;8.00;99.90;;;;;;5040560;28;20563;-36
2024/03/06 09:36:49;;;;;;;17.23;12.88;;;8.00;99.90;;;;;;5041402;28;20076;-32
2024/03/06 09:39:16;;;;;;;18.88;12.75;;;8.00;99.90;;;;;;5040143;28;20040;-34
2024/03/06 09:41:48;;;;;;;20.38;14.15;;;8.10;99.90;;;;;;5040677;28;20035;-35
2024/03/06 09:44:14;;;;;;;22.55;13.95;;;8.10;99.90;;;;;;5041414;28;20033;-35
2024/03/06 09:46:44;;;;;;;19.05;13.23;;;8.20;99.90;;;;;;5040946;28;20025;-31
2024/03/06 09:49:17;;;;;;;18.60;12.73;;;8.30;99.90;;;;;;5040851;28;20029;-36
2024/03/06 09:51:53;;;;;;;19.17;12.93;;;8.30;99.90;;;;;;5041223;28;20282;-36
2024/03/06 09:54:19;;;;;;;20.10;13.45;;;8.40;99.90;;;;;;5040331;28;20021;-35
2024/03/06 09:56:48;;;;;;;24.73;14.13;;;8.50;99.90;;;;;;5040370;28;20033;-35
2024/03/06 09:59:14;;;;;;;22.13;14.63;;;8.50;99.90;;;;;;5040697;28;20017;-35
2024/03/06 10:02:02;;;;;;;24.30;15.23;;;8.50;99.90;;;;;;5040423;28;20697;-37
2024/03/06 10:04:28;;;;;;;25.90;16.05;;;8.50;99.90;;;;;;5040390;28;20627;-36
2024/03/06 10:06:58;;;;;;;28.20;16.23;;;8.50;99.90;;;;;;5040170;28;20049;-35
2024/03/06 10:09:25;;;;;;;23.48;15.45;;;8.50;99.90;;;;;;5040887;28;20101;-34
2024/03/06 10:11:56;;;;;;;22.75;14.70;;;8.50;99.90;;;;;;5041567;28;20033;-32
2024/03/06 10:14:23;;;;;;;27.38;16.10;;;8.60;99.90;;;;;;5039705;28;20477;-33
2024/03/06 10:17:06;;;;;;;26.60;16.25;;;8.60;99.90;;;;;;5039942;28;20071;-33
2024/03/06 10:19:35;;;;;;;26.58;17.08;;;8.70;99.90;;;;;;5038897;28;20170;-35
2024/03/06 10:22:08;;;;;;;28.95;17.33;;;8.70;99.90;;;;;;5039578;28;20039;-32
2024/03/06 10:24:34;;;;;;;;;;;8.70;99.90;;;;;;5039836;28;20021;-34
2024/03/06 10:27:00;;;;;;;24.25;15.02;;;8.80;99.90;;;;;;5039566;28;20366;-33
2024/03/06 10:29:28;;;;;;;26.02;16.63;;;8.80;99.90;;;;;;5038533;28;20029;-33
2024/03/06 10:31:55;;;;;;;25.10;16.77;;;8.90;99.90;;;;;;5040606;28;20486;-36
2024/03/06 10:34:22;;;;;;;25.20;15.88;;;8.90;99.90;;;;;;5040281;28;20067;-36
2024/03/06 10:36:55;;;;;;;24.98;16.48;;;9.00;99.90;;;;;;5040542;28;20033;-34
2024/03/06 10:39:21;;;;;;;22.77;15.38;;;9.10;99.90;;;;;;5040784;28;20109;-34
2024/03/06 10:41:54;;;;;;;24.88;15.57;;;9.10;99.90;;;;;;5039530;28;20353;-34
2024/03/06 10:44:28;;;;;;;28.40;17.10;;;9.20;99.90;;;;;;5040712;28;20077;-36
2024/03/06 10:47:00;;;;;;;27.02;17.20;;;9.20;99.90;;;;;;5039777;28;20111;-36
2024/03/06 10:49:29;;;;;;;25.27;16.83;;;9.30;99.90;;;;;;5039762;28;20467;-35
2024/03/06 10:52:05;;;;;;;26.15;16.85;;;9.30;99.90;;;;;;5040281;28;20345;-32
2024/03/06 10:54:32;;;;;;;23.00;14.45;;;9.30;99.90;;;;;;5039818;28;20518;-33
2024/03/06 10:56:58;;;;;;;22.98;15.48;;;9.40;99.90;;;;;;5039127;28;20504;-36
2024/03/06 10:59:27;;;;;;;21.15;14.30;;;9.40;99.90;;;;;;5039526;28;20610;-32
2024/03/06 11:01:55;;;;;;;23.92;15.85;;;9.50;99.90;;;;;;5039545;28;20084;-37
2024/03/06 11:04:25;;;;;;;24.40;15.93;;;9.50;99.90;;;;;;5038553;28;20118;-35
2024/03/06 11:06:55;;;;;;;21.02;14.43;;;9.60;99.90;;;;;;5039145;28;20520;-33
2024/03/06 11:09:21;;;;;;;26.02;15.20;;;9.80;99.90;;;;;;5038620;28;20041;-36
2024/03/06 11:12:03;;;;;;;24.92;16.92;;;9.80;99.90;;;;;;5038791;28;20958;-36
2024/03/06 11:14:34;;;;;;;24.30;15.73;;;9.80;99.90;;;;;;5039802;28;20052;-34
2024/03/06 11:17:02;;;;;;;22.35;14.57;;;9.90;99.90;;;;;;5039458;28;20029;-36
2024/03/06 11:19:30;;;;;;;27.67;17.45;;;9.80;99.90;;;;;;5038696;28;20021;-31
2024/03/06 11:21:55;;;;;;;28.60;16.73;;;9.80;99.90;;;;;;5039380;28;20527;-32
2024/03/06 11:24:23;;;;;;;25.15;16.17;;;9.80;99.90;;;;;;5038720;28;20017;-34
2024/03/06 11:26:49;;;;;;;29.48;17.45;;;9.80;99.90;;;;;;5040432;28;20029;-30
2024/03/06 11:29:46;;;;;;;28.40;16.67;;;9.80;99.90;;;;;;5040420;28;20380;-30
2024/03/06 11:32:12;;;;;;;25.08;16.45;;;9.90;99.90;;;;;;5038578;28;20044;-33
2024/03/06 11:34:38;;;;;;;23.15;15.75;;;9.90;99.90;;;;;;5039235;28;20028;-30
2024/03/06 11:37:05;;;;;;;24.40;15.52;;;10.00;99.90;;;;;;5039691;28;20017;-32
2024/03/06 11:39:35;;;;;;;25.75;15.57;;;10.00;99.90;;;;;;5038922;28;20780;-34
2024/03/06 11:42:03;;;;;;;31.20;17.48;;;10.00;99.90;;;;;;5039526;28;20025;-33
2024/03/06 11:44:29;;;;;;;30.00;17.85;;;10.10;99.90;;;;;;5039141;28;20770;-36
2024/03/06 11:46:59;;;;;;;27.48;16.92;;;10.10;99.90;;;;;;5038934;28;20021;-35
2024/03/06 11:49:28;;;;;;;27.45;17.33;;;10.20;99.90;;;;;;5039294;28;20525;-35
2024/03/06 11:51:56;;;;;;;26.95;16.77;;;10.30;99.90;;;;;;5039745;28;20555;-33
2024/03/06 11:54:24;;;;;;;24.25;15.35;;;10.40;99.90;;;;;;5040138;28;20626;-35
2024/03/06 11:56:51;;;;;;;28.70;17.33;;;10.40;99.90;;;;;;5043737;28;20028;-33
2024/03/06 11:59:17;;;;;;;24.63;16.25;;;10.50;99.90;;;;;;5043310;28;20032;-36
2024/03/06 12:01:44;;;;;;;23.77;15.95;;;10.50;99.90;;;;;;5044095;28;20130;-33
2024/03/06 12:04:13;;;;;;;25.67;15.80;;;10.50;99.90;;;;;;5042902;28;20024;-35
2024/03/06 12:06:39;;;;;;;27.35;16.98;;;10.60;99.90;;;;;;5042036;28;20106;-36
2024/03/06 12:09:10;;;;;;;24.98;16.40;;;10.60;99.90;;;;;;5042706;28;20029;-35
2024/03/06 12:11:37;;;;;;;27.65;17.35;;;10.60;99.90;;;;;;5043509;28;20044;-35
2024/03/06 12:14:05;;;;;;;24.60;17.30;;;10.60;99.90;;;;;;5042544;28;20025;-33
2024/03/06 12:16:31;;;;;;;25.25;16.27;;;10.60;99.90;;;;;;5043093;28;20112;-35
2024/03/06 12:18:59;;;;;;;23.92;16.15;;;10.60;99.90;;;;;;5043317;28;20021;-33
2024/03/06 12:21:32;;;;;;;25.23;15.93;;;10.50;99.90;;;;;;5041602;28;20033;-33
2024/03/06 12:24:04;;;;;;;24.73;16.17;;;10.50;99.90;;;;;;5042715;28;20075;-34
2024/03/06 12:26:30;;;;;;;23.48;15.05;;;10.40;99.90;;;;;;5043507;28;20029;-34
2024/03/06 12:29:16;;;;;;;21.92;15.18;;;10.30;99.90;;;;;;5042948;28;20384;-33
2024/03/06 12:31:42;;;;;;;22.23;15.30;;;10.40;99.90;;;;;;5042916;28;20383;-31
2024/03/06 12:34:08;;;;;;;22.48;14.93;;;10.30;99.90;;;;;;5042601;28;20583;-36
2024/03/06 12:36:37;;;;;;;24.20;15.20;;;10.30;99.90;;;;;;5042880;28;20036;-35